Time;durP1;ratioP1;P1;durP2;ratioP2;P2;SDS_P1;SDS_P2;PMS_P1;PMS_P2;Temp;Humidity;BMP_temperature;BMP_pressure;BME280_temperature;BME280_humidity;BME280_pressure;Samples;Min_cycle;Max_cycle;Signal;HPM_P1;HPM_P2
2022/12/13 00:00:07;;;;;;;20.88;12.55;;;5.90;59.80;;;;;;5045973;28;20025;-81
2022/12/13 00:02:32;;;;;;;24.85;13.55;;;6.30;59.20;;;;;;5041926;28;20131;-81
2022/12/13 00:04:58;;;;;;;22.17;13.55;;;6.40;58.90;;;;;;5052132;28;20155;-81
2022/12/13 00:07:24;;;;;;;20.48;12.60;;;6.40;58.40;;;;;;5051495;28;20094;-81
2022/12/13 00:09:52;;;;;;;22.33;13.15;;;6.10;58.70;;;;;;5037720;28;20035;-81
2022/12/13 00:12:18;;;;;;;22.45;12.88;;;6.10;59.20;;;;;;5049615;28;20040;-83
2022/12/13 00:14:44;;;;;;;22.05;13.30;;;6.20;58.60;;;;;;5021162;28;20030;-81
2022/12/13 00:17:09;;;;;;;23.38;13.77;;;6.40;58.90;;;;;;5049464;28;20029;-82
2022/12/13 00:19:35;;;;;;;21.48;13.18;;;6.50;58.00;;;;;;5037271;28;20056;-81
2022/12/13 00:22:01;;;;;;;22.35;12.82;;;6.50;57.90;;;;;;5037192;28;20499;-82
2022/12/13 00:24:26;;;;;;;19.73;12.90;;;6.40;58.20;;;;;;5036267;28;20034;-82
2022/12/13 00:26:54;;;;;;;22.85;13.38;;;6.20;58.10;;;;;;5039171;28;20527;-82
2022/12/13 00:29:20;;;;;;;21.75;12.43;;;5.80;58.90;;;;;;5057233;28;20025;-82
2022/12/13 00:31:46;;;;;;;22.90;12.60;;;5.60;59.90;;;;;;5037761;28;20047;-82
2022/12/13 00:34:32;;;;;;;21.98;12.57;;;5.40;59.60;;;;;;5038648;28;20135;-83
2022/12/13 00:37:03;;;;;;;21.92;12.77;;;5.30;60.30;;;;;;5021649;28;20029;-81
2022/12/13 00:39:29;;;;;;;22.20;12.35;;;5.30;60.00;;;;;;5000333;28;20022;-83
2022/12/13 00:41:55;;;;;;;22.45;13.63;;;5.30;60.20;;;;;;5016588;28;20026;-82
2022/12/13 00:44:21;;;;;;;22.50;14.27;;;5.00;60.70;;;;;;5007554;28;20456;-83
2022/12/13 00:46:47;;;;;;;22.65;13.32;;;4.90;61.60;;;;;;4999982;28;20018;-83
2022/12/13 00:49:13;;;;;;;23.65;13.45;;;4.60;62.50;;;;;;5028255;28;20036;-84
2022/12/13 00:51:48;;;;;;;24.23;13.52;;;5.00;61.50;;;;;;5006334;28;20106;-87
2022/12/13 00:54:57;;;;;;;22.83;13.40;;;5.10;60.40;;;;;;5014938;28;20071;-84
2022/12/13 00:57:35;;;;;;;20.27;12.05;;;5.00;61.30;;;;;;5021057;28;20067;-83
2022/12/13 01:00:01;;;;;;;21.80;13.93;;;5.20;60.70;;;;;;5008605;28;20029;-83
2022/12/13 01:03:19;;;;;;;21.45;13.07;;;5.20;60.00;;;;;;4999466;28;20092;-83
2022/12/13 01:05:57;;;;;;;20.92;12.32;;;5.20;60.50;;;;;;4999546;28;20124;-83
2022/12/13 01:08:54;;;;;;;24.77;12.82;;;5.30;59.90;;;;;;5019595;28;20030;-83
2022/12/13 01:11:23;;;;;;;20.73;12.15;;;5.30;59.90;;;;;;5019133;28;20037;-84
2022/12/13 01:14:00;;;;;;;23.33;13.30;;;5.20;60.80;;;;;;5038833;28;20029;-85
2022/12/13 01:16:46;;;;;;;22.30;12.52;;;5.30;60.10;;;;;;5056669;28;20484;-84
2022/12/13 01:19:12;;;;;;;20.70;12.32;;;5.20;60.30;;;;;;5023400;28;20110;-82
2022/12/13 01:24:32;;;;;;;21.33;12.93;;;5.70;59.80;;;;;;5010687;28;20096;-82
2022/12/13 01:26:58;;;;;;;23.90;13.82;;;5.60;59.30;;;;;;5014655;28;20052;-81
2022/12/13 01:29:27;;;;;;;24.00;13.63;;;5.50;59.40;;;;;;5014887;28;20029;-83
2022/12/13 01:31:53;;;;;;;23.33;13.40;;;5.60;59.70;;;;;;5015815;28;20026;-83
2022/12/13 01:34:48;;;;;;;23.10;13.77;;;5.40;59.80;;;;;;5033558;28;20036;-81
2022/12/13 01:37:16;;;;;;;22.10;12.70;;;5.10;60.00;;;;;;5040935;28;20044;-84
2022/12/13 01:39:54;;;;;;;23.17;13.23;;;5.20;60.20;;;;;;5028018;28;20071;-83
2022/12/13 01:45:26;;;;;;;23.55;13.55;;;5.20;59.70;;;;;;4975394;28;20484;-83
2022/12/13 01:56:01;;;;;;;24.48;13.45;;;5.40;59.00;;;;;;5087391;27;1370912;-81
2022/12/13 01:58:27;;;;;;;22.60;14.45;;;5.40;59.00;;;;;;5093439;28;20054;-81
2022/12/13 02:00:53;;;;;;;23.33;14.02;;;5.20;59.80;;;;;;5093377;28;20031;-81
2022/12/13 02:03:21;;;;;;;23.27;14.00;;;5.50;59.20;;;;;;5111749;28;20024;-80
2022/12/13 02:05:53;;;;;;;22.88;13.38;;;5.40;59.40;;;;;;5093321;28;20115;-80
2022/12/13 02:08:19;;;;;;;25.52;14.38;;;5.50;59.20;;;;;;5092911;28;20351;-82
2022/12/13 02:10:46;;;;;;;23.25;13.93;;;5.50;59.40;;;;;;5085128;28;20513;-82
2022/12/13 02:13:12;;;;;;;25.45;14.25;;;5.70;58.70;;;;;;5087474;28;20458;-83
2022/12/13 02:16:11;;;;;;;22.63;13.45;;;5.60;59.40;;;;;;5094421;28;20086;-81
2022/12/13 02:18:55;;;;;;;22.90;14.00;;;5.70;58.80;;;;;;5083730;28;20024;-83
2022/12/13 02:21:42;;;;;;;24.52;13.80;;;5.70;58.50;;;;;;5073335;28;20024;-83
2022/12/13 02:24:41;;;;;;;24.48;14.18;;;5.70;59.00;;;;;;5073236;28;20039;-82
2022/12/13 02:27:16;;;;;;;18.47;11.37;;;5.90;58.70;;;;;;5072640;28;20032;-84
2022/12/13 02:30:11;;;;;;;21.55;13.88;;;6.20;57.60;;;;;;5100780;28;20016;-81
2022/12/13 02:32:49;;;;;;;20.52;12.85;;;6.20;57.60;;;;;;5092657;28;20036;-83
2022/12/13 02:35:38;;;;;;;21.90;13.13;;;6.30;57.70;;;;;;5089216;28;20083;-82
2022/12/13 02:38:15;;;;;;;22.95;13.65;;;6.30;57.40;;;;;;5081495;28;20091;-84
2022/12/13 02:40:57;;;;;;;24.30;13.60;;;6.40;57.40;;;;;;5079946;28;20062;-82
2022/12/13 02:43:33;;;;;;;23.60;13.80;;;6.90;56.50;;;;;;5072322;28;20122;-84
2022/12/13 02:46:03;;;;;;;21.83;13.63;;;7.00;55.80;;;;;;5072132;28;20024;-82
2022/12/13 02:48:32;;;;;;;;;;;7.10;55.60;;;;;;5093455;28;20028;-84
2022/12/13 02:51:00;;;;;;;22.58;12.93;;;7.00;55.40;;;;;;5075558;28;19911;-82
2022/12/13 02:53:26;;;;;;;23.35;12.88;;;6.80;55.70;;;;;;5092611;28;20024;-84
2022/12/13 02:55:52;;;;;;;23.90;13.57;;;6.70;55.90;;;;;;5091744;28;20398;-83
2022/12/13 02:58:22;;;;;;;25.40;13.90;;;6.60;55.90;;;;;;5081185;28;20028;-81
2022/12/13 03:01:03;;;;;;;24.40;13.80;;;6.40;56.20;;;;;;5086432;28;20474;-84
2022/12/13 03:03:38;;;;;;;22.15;11.88;;;6.10;56.70;;;;;;5071813;28;20070;-83
2022/12/13 03:06:31;;;;;;;24.10;14.10;;;6.00;57.00;;;;;;5083158;28;20097;-85
2022/12/13 03:09:07;;;;;;;22.83;13.75;;;5.80;57.50;;;;;;5058278;28;20020;-84
2022/12/13 03:14:52;;;;;;;25.02;13.77;;;5.80;57.60;;;;;;5076516;28;20043;-84
2022/12/13 03:17:20;;;;;;;22.02;12.63;;;5.70;57.60;;;;;;5075901;28;20035;-84
2022/12/13 03:19:46;;;;;;;22.13;12.73;;;5.90;57.30;;;;;;5059057;28;20050;-82
2022/12/13 03:28:18;;;;;;;;;;;;;;;;;;;;;
2022/12/13 03:30:53;;;;;;;23.13;13.50;;;5.90;57.20;;;;;;4936962;29;20028;-82
2022/12/13 03:36:16;;;;;;;22.65;12.63;;;5.90;56.90;;;;;;4946217;29;20051;-81
2022/12/13 03:39:07;;;;;;;24.20;13.05;;;5.80;57.30;;;;;;4917074;29;20526;-81
2022/12/13 03:41:36;;;;;;;25.25;13.50;;;5.90;57.60;;;;;;4899515;29;20059;-83
2022/12/13 03:44:07;;;;;;;23.98;13.52;;;5.80;57.40;;;;;;4917606;29;20032;-82
2022/12/13 03:47:41;;;;;;;21.00;13.15;;;6.00;57.10;;;;;;4917741;29;20044;-83
2022/12/13 03:50:49;;;;;;;;;;;;;;;;;;;;;
2022/12/13 03:56:43;;;;;;;22.55;13.38;;;6.00;56.40;;;;;;4824815;29;20053;-84
2022/12/13 04:02:07;;;;;;;21.60;12.63;;;5.90;57.00;;;;;;5026290;23;20049;-88
2022/12/13 04:04:34;;;;;;;23.60;12.90;;;6.00;56.20;;;;;;5017680;28;20057;-87
2022/12/13 04:07:00;;;;;;;23.50;13.20;;;6.10;56.40;;;;;;5018076;28;20060;-85
2022/12/13 04:09:33;;;;;;;20.70;12.68;;;6.20;55.80;;;;;;5014134;28;20050;-85
2022/12/13 04:13:37;;;;;;;23.90;13.25;;;6.00;55.60;;;;;;5079587;27;1368033;-84
2022/12/13 04:16:24;;;;;;;23.83;12.55;;;5.70;56.80;;;;;;5084724;28;20479;-84
2022/12/13 04:22:57;;;;;;;24.05;13.43;;;5.70;56.80;;;;;;5115217;28;20093;-82
2022/12/13 04:25:26;;;;;;;25.70;13.40;;;5.40;57.20;;;;;;5081259;28;20180;-86
2022/12/13 04:27:51;;;;;;;25.40;13.43;;;5.10;57.90;;;;;;5086455;28;20036;-83
2022/12/13 04:30:17;;;;;;;23.02;13.32;;;5.00;58.00;;;;;;5091467;28;20017;-83
2022/12/13 04:32:43;;;;;;;22.88;12.93;;;5.10;58.10;;;;;;5075337;28;20040;-86
2022/12/13 04:42:45;;;;;;;22.85;11.95;;;5.50;57.70;;;;;;5003907;28;20045;-83
2022/12/13 04:51:58;;;;;;;25.15;12.77;;;5.70;56.80;;;;;;4969751;28;20161;-83
2022/12/13 05:07:04;;;;;;;23.60;12.50;;;5.50;57.10;;;;;;5692840;23;20060;-85
2022/12/13 05:09:30;;;;;;;25.88;12.90;;;5.50;57.50;;;;;;5028922;28;20026;-85
2022/12/13 05:19:33;;;;;;;22.80;12.93;;;5.40;57.60;;;;;;5037373;28;20044;-86
2022/12/13 05:28:55;;;;;;;45.38;21.80;;;5.60;57.00;;;;;;5036532;28;20408;-88
2022/12/13 05:35:12;;;;;;;41.33;22.40;;;5.40;57.30;;;;;;5033087;28;20028;-86
2022/12/13 05:37:38;;;;;;;29.73;17.02;;;5.40;56.90;;;;;;5018760;28;20052;-86
2022/12/13 05:48:00;;;;;;;26.85;13.95;;;5.80;56.30;;;;;;5025567;28;20076;-85
2022/12/13 05:57:33;;;;;;;23.75;13.02;;;5.50;56.20;;;;;;4960749;23;20045;-83
2022/12/13 06:01:05;;;;;;;20.23;11.65;;;5.40;56.80;;;;;;4980026;28;20035;-88
2022/12/13 06:03:31;;;;;;;21.35;11.65;;;5.30;56.60;;;;;;4975776;28;20022;-87
2022/12/13 06:06:00;;;;;;;26.08;12.43;;;5.10;57.50;;;;;;4979358;28;20085;-87
2022/12/13 06:12:09;;;;;;;23.75;12.32;;;4.80;57.50;;;;;;5003528;28;20124;-86
2022/12/13 06:18:16;;;;;;;23.63;12.88;;;4.90;57.80;;;;;;4996312;28;20081;-87
2022/12/13 06:24:26;;;;;;;26.02;14.07;;;5.30;56.70;;;;;;4985504;28;20378;-85
2022/12/13 06:26:52;;;;;;;25.08;12.80;;;5.40;57.00;;;;;;4980641;28;20034;-86
2022/12/13 06:30:07;;;;;;;27.08;14.32;;;5.60;56.20;;;;;;5026992;23;20057;-85
2022/12/13 06:38:42;;;;;;;23.38;12.98;;;5.50;56.10;;;;;;5739805;23;20644;-84
2022/12/13 06:44:30;;;;;;;27.60;14.68;;;5.60;56.20;;;;;;5015506;28;20032;-84
2022/12/13 06:49:59;;;;;;;28.10;15.23;;;5.30;56.80;;;;;;5013738;28;20061;-86
2022/12/13 06:52:39;;;;;;;28.02;14.20;;;5.40;56.90;;;;;;4992885;28;20038;-86
2022/12/13 07:03:58;;;;;;;28.92;14.55;;;5.70;56.10;;;;;;5064883;23;20141;-89
2022/12/13 07:09:50;;;;;;;27.65;14.27;;;5.70;56.40;;;;;;5214892;23;20045;-85
2022/12/13 07:15:40;;;;;;;25.67;15.20;;;5.80;56.30;;;;;;5014752;28;20159;-88
2022/12/13 07:18:12;;;;;;;28.40;16.52;;;5.70;56.30;;;;;;5023065;28;20030;-85
2022/12/13 07:20:45;;;;;;;33.45;18.42;;;5.70;56.40;;;;;;5017008;28;20029;-84
2022/12/13 07:23:12;;;;;;;32.00;16.75;;;5.80;56.50;;;;;;4979323;28;20099;-85
2022/12/13 07:25:38;;;;;;;27.15;13.57;;;5.70;56.50;;;;;;4996850;28;20038;-86
2022/12/13 07:28:48;;;;;;;25.88;13.52;;;5.90;55.90;;;;;;4997301;28;20072;-85
2022/12/13 07:37:58;;;;;;;22.30;13.00;;;6.10;55.50;;;;;;5235339;23;20064;-85
2022/12/13 07:40:24;;;;;;;27.88;14.75;;;6.10;55.40;;;;;;4998053;28;20038;-86
2022/12/13 07:42:51;;;;;;;31.00;16.70;;;5.90;55.40;;;;;;4980561;28;20033;-86
2022/12/13 07:45:16;;;;;;;23.42;13.00;;;5.80;56.00;;;;;;4992182;28;20018;-86
2022/12/13 07:47:42;;;;;;;20.55;12.40;;;5.80;55.80;;;;;;4989177;28;20029;-86
2022/12/13 07:50:08;;;;;;;25.58;14.00;;;5.70;56.10;;;;;;4979710;28;20022;-84
2022/12/13 07:56:18;;;;;;;21.67;10.77;;;6.00;55.50;;;;;;4922119;29;20494;-84
2022/12/13 07:58:46;;;;;;;23.73;12.25;;;5.60;56.60;;;;;;4915576;29;20032;-82
2022/12/13 08:01:12;;;;;;;21.10;11.95;;;5.60;57.10;;;;;;4934255;29;20023;-82
2022/12/13 08:03:38;;;;;;;21.40;12.40;;;6.00;56.40;;;;;;4933926;29;20063;-84
2022/12/13 08:06:10;;;;;;;23.13;11.70;;;6.30;55.70;;;;;;4934087;29;20036;-84
2022/12/13 08:08:36;;;;;;;20.08;11.73;;;6.60;54.80;;;;;;4928318;29;20016;-81
2022/12/13 08:11:08;;;;;;;22.02;11.70;;;6.80;54.80;;;;;;4933923;29;20144;-81
2022/12/13 08:13:34;;;;;;;25.23;12.05;;;6.90;54.40;;;;;;4934004;29;20036;-82
2022/12/13 08:16:05;;;;;;;20.58;10.82;;;7.10;54.10;;;;;;4918122;29;20107;-87
2022/12/13 08:18:31;;;;;;;19.65;11.20;;;7.30;53.30;;;;;;4914876;29;20170;-84
2022/12/13 08:21:05;;;;;;;18.77;11.57;;;7.30;53.20;;;;;;4924864;29;20019;-82
2022/12/13 08:23:32;;;;;;;20.10;12.50;;;7.30;52.60;;;;;;4925680;29;20047;-82
2022/12/13 08:25:58;;;;;;;20.65;12.57;;;7.30;53.30;;;;;;4938783;29;20111;-86
2022/12/13 08:28:25;;;;;;;19.92;11.80;;;7.20;52.60;;;;;;4944705;29;20026;-82
2022/12/13 08:30:51;;;;;;;21.27;12.52;;;6.60;53.80;;;;;;5008453;28;20052;-79
2022/12/13 08:33:18;;;;;;;18.13;10.80;;;6.50;54.70;;;;;;4981150;28;20030;-81
2022/12/13 08:35:44;;;;;;;20.70;11.18;;;6.80;54.30;;;;;;4992546;28;20091;-82
2022/12/13 08:38:10;;;;;;;26.20;12.55;;;7.20;53.90;;;;;;4976471;28;20030;-83
2022/12/13 08:40:37;;;;;;;30.63;15.18;;;7.80;53.10;;;;;;4983879;28;20079;-83
2022/12/13 08:45:07;;;;;;;30.15;12.05;;;10.00;50.30;;;;;;5072577;27;1369860;-79
2022/12/13 08:47:33;;;;;;;22.20;11.48;;;11.20;48.60;;;;;;5092626;28;20066;-80
2022/12/13 08:49:59;;;;;;;41.70;15.70;;;12.20;46.10;;;;;;5092575;28;20032;-79
2022/12/13 08:52:24;;;;;;;20.52;11.65;;;13.70;45.00;;;;;;5092125;28;20474;-79
2022/12/13 08:54:50;;;;;;;26.75;11.88;;;15.10;43.10;;;;;;5092502;28;20048;-78
2022/12/13 08:57:17;;;;;;;20.77;12.00;;;16.30;41.60;;;;;;5092325;28;20462;-79
2022/12/13 08:59:43;;;;;;;19.17;11.10;;;17.70;40.30;;;;;;5110797;28;20102;-80
2022/12/13 09:02:12;;;;;;;23.15;11.85;;;18.40;40.00;;;;;;5110554;28;20103;-80
2022/12/13 09:04:38;;;;;;;22.73;11.32;;;19.30;38.90;;;;;;5110440;28;20032;-80
2022/12/13 09:07:03;;;;;;;16.15;9.65;;;20.20;38.00;;;;;;5092419;28;20085;-81
2022/12/13 09:09:29;;;;;;;17.27;11.07;;;20.60;37.70;;;;;;5110442;28;20106;-81
2022/12/13 09:11:55;;;;;;;16.38;11.27;;;20.50;37.30;;;;;;5110820;28;20022;-81
2022/12/13 09:14:21;;;;;;;19.15;10.60;;;20.70;37.20;;;;;;5092429;28;20486;-82
2022/12/13 09:16:47;;;;;;;16.13;10.50;;;21.10;36.90;;;;;;5092305;28;20016;-82
2022/12/13 09:19:12;;;;;;;16.33;10.25;;;21.10;36.40;;;;;;5110914;28;20032;-82
2022/12/13 09:21:38;;;;;;;15.82;10.52;;;21.40;36.50;;;;;;5092634;28;20443;-83
2022/12/13 09:24:04;;;;;;;17.27;11.02;;;21.80;35.80;;;;;;5110955;28;20085;-82
2022/12/13 09:26:30;;;;;;;16.10;10.68;;;22.00;35.90;;;;;;5110968;28;20020;-83
2022/12/13 09:28:55;;;;;;;23.73;12.98;;;22.00;35.70;;;;;;5111210;28;20412;-83
2022/12/13 09:31:21;;;;;;;15.77;10.75;;;21.00;36.30;;;;;;5092458;28;20020;-82
2022/12/13 09:33:47;;;;;;;18.70;11.73;;;20.80;36.70;;;;;;5092523;28;20463;-82
2022/12/13 09:36:18;;;;;;;18.50;10.43;;;21.10;36.60;;;;;;5092370;28;20473;-82
2022/12/13 09:38:45;;;;;;;15.38;9.63;;;21.50;36.20;;;;;;5110435;28;20019;-82
2022/12/13 09:41:29;;;;;;;15.65;9.88;;;21.20;36.10;;;;;;5110554;28;20020;-82
2022/12/13 09:44:03;;;;;;;17.20;10.98;;;21.20;36.40;;;;;;5092074;28;20054;-82
2022/12/13 09:46:32;;;;;;;16.92;10.55;;;20.40;36.00;;;;;;5110370;28;20024;-83
2022/12/13 09:49:02;;;;;;;17.45;10.73;;;19.90;37.20;;;;;;5092244;28;20113;-82
2022/12/13 09:51:29;;;;;;;16.20;11.05;;;19.60;36.50;;;;;;5091983;28;20111;-81
2022/12/13 09:53:55;;;;;;;15.75;10.15;;;19.00;37.30;;;;;;5110317;28;20592;-83
2022/12/13 09:56:22;;;;;;;17.70;11.43;;;19.60;36.90;;;;;;5078984;28;20115;-82
2022/12/13 09:58:51;;;;;;;17.40;10.57;;;20.10;37.10;;;;;;5096693;28;20024;-81
2022/12/13 10:01:16;;;;;;;19.30;14.35;;;20.80;36.20;;;;;;5096377;28;20031;-83
2022/12/13 10:03:47;;;;;;;18.65;11.63;;;20.50;36.80;;;;;;5096213;28;20036;-84
2022/12/13 10:06:16;;;;;;;21.73;11.35;;;20.90;36.70;;;;;;5096507;28;20344;-85
2022/12/13 10:08:49;;;;;;;17.30;10.88;;;21.60;35.80;;;;;;5078500;28;20016;-83
2022/12/13 10:11:17;;;;;;;17.45;11.43;;;21.50;36.10;;;;;;5078555;28;20104;-83
2022/12/13 10:13:49;;;;;;;29.70;13.10;;;21.10;36.30;;;;;;5077972;28;20027;-83
2022/12/13 10:16:23;;;;;;;17.73;11.77;;;20.20;36.40;;;;;;5078112;28;20020;-83
2022/12/13 10:18:48;;;;;;;29.45;19.70;;;20.00;37.00;;;;;;5075324;28;20031;-82
2022/12/13 10:21:24;;;;;;;15.85;10.27;;;20.00;36.60;;;;;;5096120;28;20024;-82
2022/12/13 10:23:50;;;;;;;20.15;12.60;;;19.40;37.00;;;;;;5077962;28;20043;-82
2022/12/13 10:26:15;;;;;;;41.28;20.92;;;19.40;37.80;;;;;;5078040;28;20016;-83
2022/12/13 10:28:42;;;;;;;35.72;19.08;;;19.50;37.20;;;;;;5077541;28;20024;-82
2022/12/13 10:31:15;;;;;;;34.90;18.52;;;19.10;37.20;;;;;;5077791;28;20016;-81
2022/12/13 10:33:51;;;;;;;27.38;16.33;;;19.10;38.00;;;;;;5095619;28;20416;-80
2022/12/13 10:36:29;;;;;;;19.90;10.65;;;19.60;37.20;;;;;;5096056;28;20095;-81
2022/12/13 10:38:55;;;;;;;19.40;11.40;;;18.80;37.20;;;;;;5077318;28;20419;-82
2022/12/13 10:41:36;;;;;;;44.22;24.48;;;18.10;38.40;;;;;;5095532;28;20053;-81
2022/12/13 10:44:11;;;;;;;16.65;10.57;;;17.90;38.10;;;;;;5076980;28;20047;-80
2022/12/13 10:46:41;;;;;;;15.15;9.60;;;16.50;38.50;;;;;;5095255;28;20039;-82
2022/12/13 10:49:22;;;;;;;16.80;9.77;;;15.50;39.90;;;;;;5077067;28;20032;-82
2022/12/13 10:51:50;;;;;;;19.20;11.18;;;15.10;40.80;;;;;;5095372;28;20016;-81
2022/12/13 10:54:27;;;;;;;21.58;10.85;;;14.30;41.40;;;;;;5095050;28;20069;-80
2022/12/13 10:56:58;;;;;;;20.13;10.70;;;14.50;42.40;;;;;;5077191;28;20370;-81
2022/12/13 10:59:30;;;;;;;13.63;9.20;;;14.50;42.00;;;;;;5077008;28;20031;-81
2022/12/13 11:01:56;;;;;;;16.05;9.48;;;14.70;41.10;;;;;;5077174;28;20104;-80
2022/12/13 11:04:33;;;;;;;21.05;10.85;;;14.80;41.00;;;;;;5076995;28;20060;-80
2022/12/13 11:07:19;;;;;;;34.03;12.73;;;14.70;41.60;;;;;;5076011;28;20028;-80
2022/12/13 11:09:45;;;;;;;69.72;20.20;;;14.90;41.30;;;;;;5076963;28;20039;-81
2022/12/13 11:12:13;;;;;;;17.67;10.18;;;14.30;41.70;;;;;;5094670;28;20113;-81
2022/12/13 11:15:01;;;;;;;31.15;12.60;;;13.50;42.40;;;;;;5094924;28;20470;-81
2022/12/13 11:17:29;;;;;;;28.85;11.55;;;13.20;43.40;;;;;;5093767;28;20471;-80
2022/12/13 11:19:59;;;;;;;37.08;13.35;;;12.90;43.60;;;;;;5077002;28;20030;-80
2022/12/13 11:22:30;;;;;;;20.08;9.70;;;12.20;43.60;;;;;;5076898;28;20455;-81
2022/12/13 11:25:02;;;;;;;42.42;15.38;;;11.30;44.70;;;;;;5094703;28;20034;-81
2022/12/13 11:27:49;;;;;;;24.88;10.68;;;10.70;45.80;;;;;;5094746;28;20020;-80
2022/12/13 11:30:21;;;;;;;23.60;10.25;;;10.20;46.10;;;;;;5094912;28;20020;-81
2022/12/13 11:33:13;;;;;;;28.75;11.75;;;9.80;47.10;;;;;;5076613;28;20016;-81
2022/12/13 11:36:03;;;;;;;27.48;11.85;;;9.40;47.00;;;;;;5094740;28;20036;-81
2022/12/13 11:38:31;;;;;;;;;;;9.60;47.80;;;;;;5095010;28;20077;-80
2022/12/13 11:41:13;;;;;;;20.75;9.90;;;10.10;46.90;;;;;;5076540;28;19922;-81
2022/12/13 11:44:07;;;;;;;19.27;8.15;;;9.90;46.60;;;;;;5094345;28;20107;-81
2022/12/13 11:46:47;;;;;;;20.58;9.07;;;9.70;45.60;;;;;;5076526;28;20455;-80
2022/12/13 11:49:40;;;;;;;19.45;8.32;;;9.50;46.90;;;;;;5094528;28;20027;-82
2022/12/13 11:52:39;;;;;;;24.55;9.25;;;9.70;47.30;;;;;;5093633;28;20035;-81
2022/12/13 11:55:18;;;;;;;22.70;9.73;;;10.00;46.70;;;;;;5076491;28;20103;-81
2022/12/13 11:57:49;;;;;;;24.67;11.57;;;9.80;46.40;;;;;;5076124;28;20032;-81
2022/12/13 12:00:35;;;;;;;21.00;10.30;;;9.90;47.30;;;;;;5094053;28;20038;-81
2022/12/13 12:03:29;;;;;;;16.55;9.38;;;10.40;47.10;;;;;;5094348;28;20016;-80
2022/12/13 12:06:16;;;;;;;14.98;8.35;;;10.60;46.10;;;;;;5076251;28;20027;-80
2022/12/13 12:08:55;;;;;;;14.57;7.25;;;10.50;46.00;;;;;;5094001;28;20020;-81
2022/12/13 12:11:27;;;;;;;19.63;8.20;;;10.50;45.80;;;;;;5075932;28;20016;-80
2022/12/13 12:14:00;;;;;;;15.50;7.88;;;10.60;46.00;;;;;;5094000;28;20099;-81
2022/12/13 12:16:52;;;;;;;14.45;6.93;;;10.60;45.80;;;;;;5075992;28;20027;-82
2022/12/13 12:19:39;;;;;;;14.77;8.07;;;10.50;45.70;;;;;;5075809;28;20588;-80
2022/12/13 12:22:14;;;;;;;17.40;8.70;;;10.50;46.10;;;;;;5093569;28;20096;-81
2022/12/13 12:24:58;;;;;;;18.17;9.07;;;10.50;46.40;;;;;;5075446;28;20058;-81
2022/12/13 12:27:42;;;;;;;13.93;7.55;;;10.70;45.80;;;;;;5075740;28;20024;-80
2022/12/13 12:30:19;;;;;;;17.88;8.75;;;10.40;46.10;;;;;;5093712;28;20115;-81
2022/12/13 12:33:13;;;;;;;14.57;7.68;;;10.20;46.90;;;;;;5075863;28;20012;-80
2022/12/13 12:35:57;;;;;;;16.25;8.57;;;10.20;46.30;;;;;;5075405;28;20081;-82
2022/12/13 12:38:43;;;;;;;13.52;7.57;;;10.20;46.10;;;;;;5093599;28;20016;-81
2022/12/13 12:41:53;;;;;;;18.52;9.50;;;10.20;46.20;;;;;;5075768;28;20024;-81
2022/12/13 12:44:48;;;;;;;17.52;8.73;;;10.10;46.40;;;;;;4975615;28;20050;-81
2022/12/13 12:47:52;;;;;;;15.60;8.38;;;10.20;46.40;;;;;;4992386;28;20390;-80
2022/12/13 12:50:49;;;;;;;24.95;13.13;;;9.80;46.20;;;;;;4975835;28;20054;-81
2022/12/13 12:53:29;;;;;;;18.88;10.02;;;10.00;47.40;;;;;;4991985;28;20019;-80
2022/12/13 12:56:21;;;;;;;28.92;12.10;;;10.30;46.90;;;;;;4976002;28;20086;-79
2022/12/13 12:58:53;;;;;;;24.85;12.43;;;10.40;45.80;;;;;;4992375;28;20022;-80
2022/12/13 13:01:22;;;;;;;22.60;12.32;;;10.30;46.70;;;;;;4992136;28;20039;-82
2022/12/13 13:03:52;;;;;;;33.40;13.85;;;10.40;46.70;;;;;;4975865;28;20029;-81
2022/12/13 13:06:21;;;;;;;37.63;15.02;;;10.30;46.60;;;;;;4992392;28;20477;-80
2022/12/13 13:08:57;;;;;;;21.63;9.77;;;10.50;46.80;;;;;;4992384;28;20041;-82
2022/12/13 13:11:26;;;;;;;24.33;10.50;;;10.50;46.60;;;;;;4976049;28;20014;-81
2022/12/13 13:13:58;;;;;;;22.25;11.13;;;10.40;46.60;;;;;;4992299;28;20035;-82
2022/12/13 13:16:26;;;;;;;25.45;11.00;;;10.40;46.10;;;;;;4975708;28;20022;-81
2022/12/13 13:18:54;;;;;;;13.88;7.68;;;10.30;45.80;;;;;;4975934;28;20409;-81
2022/12/13 13:21:23;;;;;;;16.13;8.68;;;10.20;46.10;;;;;;5047543;28;20489;-81
2022/12/13 13:24:00;;;;;;;20.02;9.55;;;10.30;46.70;;;;;;5093349;28;20103;-81
2022/12/13 13:26:38;;;;;;;21.70;9.98;;;10.20;46.40;;;;;;5075605;28;20019;-81
2022/12/13 13:29:29;;;;;;;23.23;10.75;;;10.10;46.70;;;;;;5075151;28;20097;-83
2022/12/13 13:32:12;;;;;;;18.70;9.27;;;10.30;47.00;;;;;;5079417;28;20040;-81
2022/12/13 13:34:41;;;;;;;12.57;7.45;;;10.30;46.50;;;;;;5079037;28;20046;-82
2022/12/13 13:37:19;;;;;;;14.75;8.68;;;10.20;46.70;;;;;;5078191;28;20031;-81
2022/12/13 13:39:54;;;;;;;14.75;9.27;;;10.00;46.90;;;;;;5079556;28;20431;-82
2022/12/13 13:42:21;;;;;;;17.00;10.52;;;10.00;46.40;;;;;;5078564;28;20421;-83
2022/12/13 13:44:53;;;;;;;18.23;9.25;;;10.00;46.80;;;;;;5096756;28;20479;-82
2022/12/13 13:47:18;;;;;;;137.68;76.65;;;10.00;46.80;;;;;;5078298;28;20430;-80
2022/12/13 13:49:50;;;;;;;57.85;25.23;;;10.10;47.40;;;;;;5096669;28;20462;-79
2022/12/13 13:52:20;;;;;;;117.22;89.03;;;10.10;47.40;;;;;;5078140;28;20111;-80
2022/12/13 13:55:07;;;;;;;53.47;34.47;;;10.20;47.50;;;;;;5078218;28;20119;-81
2022/12/13 13:57:57;;;;;;;47.78;20.63;;;10.30;47.80;;;;;;5078345;28;20016;-81
2022/12/13 14:00:37;;;;;;;;;;;10.30;47.60;;;;;;5078628;28;20017;-83
2022/12/13 14:03:24;;;;;;;24.70;13.13;;;10.40;47.80;;;;;;5073720;28;19923;-81
2022/12/13 14:06:34;;;;;;;43.63;27.52;;;10.30;47.20;;;;;;5075954;28;20024;-81
2022/12/13 14:09:19;;;;;;;20.60;9.98;;;10.10;47.50;;;;;;5058052;28;20017;-82
2022/12/13 14:12:22;;;;;;;48.55;16.60;;;9.90;47.80;;;;;;5058444;28;20123;-82
2022/12/13 14:15:46;;;;;;;45.65;15.27;;;9.90;48.40;;;;;;5058205;28;20059;-81
2022/12/13 14:18:31;;;;;;;76.65;23.30;;;9.80;48.90;;;;;;5073299;28;20451;-83
2022/12/13 14:21:08;;;;;;;59.65;16.77;;;9.60;49.20;;;;;;5076193;28;20036;-80
2022/12/13 14:23:55;;;;;;;55.30;16.83;;;9.60;48.80;;;;;;5057870;28;20020;-81
2022/12/13 14:26:47;;;;;;;46.75;15.85;;;9.50;49.00;;;;;;5058149;28;20020;-81
2022/12/13 14:29:17;;;;;;;39.70;14.18;;;9.50;49.00;;;;;;5076208;28;20541;-81
2022/12/13 14:31:48;;;;;;;69.40;17.73;;;9.50;48.80;;;;;;5058024;28;20024;-82
2022/12/13 14:34:27;;;;;;;92.88;23.67;;;9.40;49.30;;;;;;5058038;28;20466;-83
2022/12/13 14:37:01;;;;;;;67.65;19.48;;;9.20;49.60;;;;;;5075817;28;20028;-80
2022/12/13 14:39:29;;;;;;;37.80;17.63;;;9.20;49.70;;;;;;5057843;28;20021;-84
2022/12/13 14:41:57;;;;;;;30.63;15.93;;;9.30;49.40;;;;;;5065943;28;20143;-81
2022/12/13 14:44:34;;;;;;;32.58;14.88;;;9.30;49.20;;;;;;5060724;28;20106;-82
2022/12/13 14:47:04;;;;;;;29.33;14.75;;;9.40;49.30;;;;;;5064303;28;20027;-80
2022/12/13 14:49:33;;;;;;;26.90;15.63;;;9.20;49.80;;;;;;5076991;28;20110;-80
2022/12/13 14:52:05;;;;;;;25.00;15.05;;;9.20;49.70;;;;;;5091324;28;20047;-81
2022/12/13 14:54:51;;;;;;;37.05;14.38;;;9.20;49.80;;;;;;5094607;28;20132;-80
2022/12/13 14:57:20;;;;;;;73.55;32.65;;;8.80;50.50;;;;;;5079401;28;20021;-80
2022/12/13 14:59:47;;;;;;;71.72;37.60;;;8.50;50.50;;;;;;5091694;28;20023;-83
2022/12/13 15:02:19;;;;;;;51.72;25.15;;;8.60;50.20;;;;;;5074660;28;20035;-81
2022/12/13 15:04:45;;;;;;;56.10;27.70;;;8.40;50.20;;;;;;5074742;28;20063;-83
2022/12/13 15:07:24;;;;;;;49.13;23.50;;;8.40;50.20;;;;;;5059638;28;20048;-84
2022/12/13 15:09:59;;;;;;;46.22;22.02;;;8.40;50.50;;;;;;5072960;28;20028;-83
2022/12/13 15:12:27;;;;;;;43.15;23.48;;;8.50;50.20;;;;;;5062039;28;20474;-81
2022/12/13 15:15:01;;;;;;;37.80;17.65;;;8.50;50.10;;;;;;5061757;28;20048;-83
2022/12/13 15:17:27;;;;;;;32.83;16.45;;;8.60;50.20;;;;;;5057778;28;20032;-80
2022/12/13 15:19:53;;;;;;;42.42;21.77;;;8.60;50.20;;;;;;5078695;28;20504;-82
2022/12/13 15:22:18;;;;;;;43.15;22.50;;;8.70;50.10;;;;;;5072022;28;20378;-81
2022/12/13 15:24:47;;;;;;;45.28;23.00;;;8.60;50.10;;;;;;5068980;28;20486;-84
2022/12/13 15:27:14;;;;;;;47.03;23.65;;;8.60;50.30;;;;;;5076063;28;20039;-81
2022/12/13 15:29:43;;;;;;;89.95;32.85;;;8.50;50.60;;;;;;5062739;28;20059;-82
2022/12/13 15:32:17;;;;;;;80.07;31.52;;;8.50;50.40;;;;;;5057194;28;20538;-83
2022/12/13 15:34:46;;;;;;;66.57;28.65;;;8.60;50.70;;;;;;5066662;28;20021;-82
2022/12/13 15:37:12;;;;;;;51.67;28.27;;;8.60;50.80;;;;;;5067868;28;20021;-83
2022/12/13 15:39:45;;;;;;;62.70;31.88;;;8.60;50.50;;;;;;5077357;28;20418;-83
2022/12/13 15:42:43;;;;;;;66.18;30.73;;;8.60;50.30;;;;;;5056285;28;20012;-83